createdAt,value
2016-09-23T00:00:58.490Z,53.86
2016-09-23T00:01:58.468Z,53.96
2016-09-23T00:02:58.447Z,54.15
2016-09-23T00:03:58.425Z,54.34
2016-09-23T00:04:58.403Z,54.34
2016-09-23T00:05:58.381Z,54.72
2016-09-23T00:06:58.357Z,54.82
2016-09-23T00:07:58.331Z,54.63
2016-09-23T00:08:58.311Z,54.44
2016-09-23T00:09:58.290Z,54.72
2016-09-23T00:10:58.268Z,54.63
2016-09-23T00:11:58.251Z,55.11
2016-09-23T00:12:58.224Z,55.01
2016-09-23T00:13:58.200Z,54.72
2016-09-23T00:14:58.176Z,54.82
2016-09-23T00:15:58.157Z,55.01
2016-09-23T00:16:58.130Z,54.89
2016-09-23T00:17:58.111Z,54.89
2016-09-23T00:18:58.092Z,55.18
2016-09-23T00:19:58.065Z,55.36
2016-09-23T00:20:58.046Z,55.56
2016-09-23T00:21:58.020Z,55.46
2016-09-23T00:22:57.997Z,55.65
2016-09-23T00:23:57.974Z,55.65
2016-09-23T00:24:57.951Z,55.56
2016-09-23T00:25:57.925Z,55.27
2016-09-23T00:26:57.907Z,55.46
2016-09-23T00:27:57.882Z,55.36
2016-09-23T00:28:57.871Z,55.56
2016-09-23T00:29:57.838Z,55.75
2016-09-23T00:30:57.816Z,55.85
2016-09-23T00:31:57.791Z,55.75
2016-09-23T00:32:57.766Z,56.04
2016-09-23T00:33:57.747Z,56.04
2016-09-23T00:34:57.723Z,56.13
2016-09-23T00:35:57.700Z,55.94
2016-09-23T00:36:57.684Z,56.13
2016-09-23T00:37:57.655Z,56.32
2016-09-23T00:38:57.631Z,56.61
2016-09-23T00:39:57.606Z,56.61
2016-09-23T00:40:57.586Z,56.32
2016-09-23T00:41:57.566Z,56.32
2016-09-23T00:42:57.541Z,56.13
2016-09-23T00:43:57.517Z,56.42
2016-09-23T00:44:57.495Z,56.81
2016-09-23T00:45:57.472Z,56.52
2016-09-23T00:46:57.456Z,56.71
2016-09-23T00:47:57.427Z,56.81
2016-09-23T00:48:57.403Z,56.9
2016-09-23T00:49:57.380Z,57.35
2016-09-23T00:50:57.355Z,56.77
2016-09-23T00:51:57.335Z,57.19
2016-09-23T00:52:57.312Z,57.28
2016-09-23T00:53:57.298Z,57.06
2016-09-23T00:54:57.265Z,56.77
2016-09-23T00:55:57.240Z,56.77
2016-09-23T00:56:57.217Z,57.06
2016-09-23T00:57:57.191Z,57.35
2016-09-23T00:58:57.172Z,57.45
2016-09-23T00:59:57.151Z,57.54
2016-09-23T01:00:57.126Z,57.54
2016-09-23T01:01:57.102Z,57.45
2016-09-23T01:02:57.086Z,57.45
2016-09-23T01:03:57.057Z,57.35
2016-09-23T01:04:57.033Z,57.35
2016-09-23T01:05:57.008Z,57.45
2016-09-23T01:06:56.985Z,56.97
2016-09-23T01:07:56.996Z,57.26
2016-09-23T01:08:56.937Z,57.06
2016-09-23T01:09:56.919Z,57.26
2016-09-23T01:10:56.894Z,57.35
2016-09-23T01:11:56.873Z,57.54
2016-09-23T01:12:56.847Z,57.83
2016-09-23T01:13:56.822Z,57.16
2016-09-23T01:14:56.801Z,57.64
2016-09-23T01:15:56.778Z,57.35
2016-09-23T01:16:56.752Z,57.54
2016-09-23T01:17:56.730Z,57.54
2016-09-23T01:18:56.708Z,57.83
2016-09-23T01:19:56.688Z,57.73
2016-09-23T01:20:56.663Z,58.02
2016-09-23T01:21:56.638Z,58.02
2016-09-23T01:22:56.613Z,57.83
2016-09-23T01:23:56.592Z,58.02
2016-09-23T01:24:56.567Z,57.92
2016-09-23T01:25:56.548Z,57.83
2016-09-23T01:26:56.526Z,57.54
2016-09-23T01:27:56.498Z,57.35
2016-09-23T01:28:56.484Z,57.35
2016-09-23T01:29:56.453Z,57.73
2016-09-23T01:30:56.427Z,57.35
2016-09-23T01:31:56.404Z,57.16
2016-09-23T01:32:56.385Z,57.54
2016-09-23T01:33:56.360Z,57.45
2016-09-23T01:34:56.343Z,57.54
2016-09-23T01:35:56.312Z,57.45
2016-09-23T01:36:56.291Z,57.92
2016-09-23T01:37:56.266Z,57.83
2016-09-23T01:38:56.241Z,57.73
2016-09-23T01:39:56.218Z,57.73
2016-09-23T01:40:56.194Z,57.92
2016-09-23T01:41:56.170Z,57.92
2016-09-23T01:42:56.149Z,57.83
2016-09-23T01:43:56.126Z,57.64
2016-09-23T01:44:56.103Z,57.9
2016-09-23T01:45:56.080Z,57.92
2016-09-23T01:46:56.063Z,58.47
2016-09-23T01:47:56.030Z,58.37
2016-09-23T01:48:56.010Z,58.37
2016-09-23T01:49:55.987Z,57.99
2016-09-23T01:50:55.963Z,58.09
2016-09-23T01:51:55.939Z,57.99
2016-09-23T01:52:55.916Z,58.18
2016-09-23T01:53:55.893Z,58.37
2016-09-23T01:54:55.868Z,58.37
2016-09-23T01:55:55.850Z,58.37
2016-09-23T01:56:55.821Z,58.28
2016-09-23T01:57:55.802Z,58.37
2016-09-23T01:58:55.771Z,58.18
2016-09-23T01:59:55.752Z,58.56
2016-09-23T02:00:55.727Z,58.86
2016-09-23T02:01:55.702Z,58.86
2016-09-23T02:02:55.690Z,58.66
2016-09-23T02:03:55.656Z,58.86
2016-09-23T02:04:55.634Z,58.86
2016-09-23T02:05:55.609Z,58.86
2016-09-23T02:06:55.589Z,58.76
2016-09-23T02:07:55.563Z,58.66
2016-09-23T02:08:55.539Z,58.86
2016-09-23T02:09:55.514Z,58.95
2016-09-23T02:10:55.488Z,58.95
2016-09-23T02:11:55.466Z,58.95
2016-09-23T02:12:55.441Z,58.86
2016-09-23T02:13:55.435Z,58.76
2016-09-23T02:14:55.394Z,58.66
2016-09-23T02:15:55.379Z,58.66
2016-09-23T02:16:55.351Z,58.76
2016-09-23T02:17:55.321Z,58.86
2016-09-23T02:18:55.302Z,58.66
2016-09-23T02:19:55.276Z,58.95
2016-09-23T02:20:55.254Z,58.86
2016-09-23T02:21:55.231Z,58.76
2016-09-23T02:22:55.206Z,58.76
2016-09-23T02:23:55.184Z,58.86
2016-09-23T02:24:55.158Z,58.86
2016-09-23T02:25:55.136Z,58.95
2016-09-23T02:26:55.112Z,58.86
2016-09-23T02:27:55.090Z,58.86
2016-09-23T02:28:55.069Z,58.76
2016-09-23T02:29:55.043Z,58.76
2016-09-23T02:30:55.019Z,58.95
2016-09-23T02:31:54.994Z,58.95
2016-09-23T02:32:54.971Z,58.86
2016-09-23T02:33:54.947Z,58.95
2016-09-23T02:34:54.924Z,58.47
2016-09-23T02:35:54.898Z,58.66
2016-09-23T02:36:54.875Z,58.66
2016-09-23T02:37:54.862Z,58.66
2016-09-23T02:38:54.832Z,58.76
2016-09-23T02:39:54.806Z,58.37
2016-09-23T02:40:54.780Z,58.37
2016-09-23T02:41:54.764Z,58.37
2016-09-23T02:42:54.736Z,58.95
2016-09-23T02:43:54.712Z,58.76
2016-09-23T02:44:54.687Z,58.86
2016-09-23T02:45:54.670Z,58.86
2016-09-23T02:46:54.643Z,58.76
2016-09-23T02:47:54.619Z,59.05
2016-09-23T02:48:54.593Z,58.95
2016-09-23T02:49:54.569Z,59.05
2016-09-23T02:50:54.547Z,59.05
2016-09-23T02:51:54.525Z,59.05
2016-09-23T02:52:54.503Z,59.05
2016-09-23T02:53:54.476Z,59.14
2016-09-23T02:54:54.455Z,58.95
2016-09-23T02:55:54.429Z,59.05
2016-09-23T02:56:54.406Z,59.05
2016-09-23T02:57:54.384Z,59.05
2016-09-23T02:58:54.357Z,59.14
2016-09-23T02:59:54.336Z,59.05
2016-09-23T03:00:54.312Z,59.05
2016-09-23T03:01:54.294Z,59.05
2016-09-23T03:02:54.265Z,59.05
2016-09-23T03:03:54.539Z,59.05
2016-09-23T03:04:54.217Z,59.05
2016-09-23T03:05:54.192Z,58.95
2016-09-23T03:06:54.169Z,59.05
2016-09-23T03:07:54.164Z,59.05
2016-09-23T03:08:54.129Z,59.05
2016-09-23T03:09:54.101Z,59.05
2016-09-23T03:10:54.074Z,59.05
2016-09-23T03:11:54.055Z,59.05
2016-09-23T03:12:54.034Z,59.05
2016-09-23T03:13:54.006Z,59.05
2016-09-23T03:14:53.982Z,59.05
2016-09-23T03:15:53.960Z,59.14
2016-09-23T03:16:53.936Z,59.05
2016-09-23T03:17:53.911Z,58.95
2016-09-23T03:18:53.891Z,58.95
2016-09-23T03:19:53.864Z,59.05
2016-09-23T03:20:53.848Z,59.05
2016-09-23T03:21:53.823Z,59.05
2016-09-23T03:22:53.798Z,58.95
2016-09-23T03:23:53.774Z,59.23
2016-09-23T03:24:53.747Z,58.95
2016-09-23T03:25:53.728Z,59.05
2016-09-23T03:26:53.704Z,59.33
2016-09-23T03:27:53.978Z,59.43
2016-09-23T03:28:53.657Z,59.23
2016-09-23T03:29:53.635Z,59.05
2016-09-23T03:30:53.610Z,59.14
2016-09-23T03:31:53.588Z,59.33
2016-09-23T03:32:53.564Z,59.52
2016-09-23T03:33:53.541Z,59.52
2016-09-23T03:34:53.516Z,59.52
2016-09-23T03:35:53.493Z,59.43
2016-09-23T03:36:53.470Z,59.52
2016-09-23T03:37:53.451Z,59.91
2016-09-23T03:38:53.422Z,59.43
2016-09-23T03:39:53.412Z,59.62
2016-09-23T03:40:53.376Z,59.62
2016-09-23T03:41:53.351Z,59.23
2016-09-23T03:42:53.329Z,59.52
2016-09-23T03:43:53.306Z,59.52
2016-09-23T03:44:53.282Z,60.38
2016-09-23T03:45:53.257Z,59.72
2016-09-23T03:46:53.235Z,60.29
2016-09-23T03:47:53.215Z,60.1
2016-09-23T03:48:53.188Z,60.29
2016-09-23T03:49:53.167Z,60
2016-09-23T03:50:53.139Z,59.81
2016-09-23T03:51:53.116Z,59.91
2016-09-23T03:52:53.093Z,60.19
2016-09-23T03:53:53.069Z,60.1
2016-09-23T03:54:53.048Z,60.19
2016-09-23T03:55:53.022Z,60
2016-09-23T03:56:52.998Z,60.19
2016-09-23T03:57:52.977Z,60.1
2016-09-23T03:58:52.950Z,60.19
2016-09-23T03:59:52.928Z,60.38
2016-09-23T04:00:52.904Z,60.58
2016-09-23T04:01:52.881Z,60.38
2016-09-23T04:02:52.857Z,60.38
2016-09-23T04:03:52.831Z,60.58
2016-09-23T04:04:52.809Z,60.48
2016-09-23T04:05:52.786Z,60.77
2016-09-23T04:06:52.761Z,60.29
2016-09-23T04:07:52.740Z,60.29
2016-09-23T04:08:52.717Z,60.16
2016-09-23T04:09:52.693Z,60.38
2016-09-23T04:10:52.668Z,60.38
2016-09-23T04:11:52.643Z,60.48
2016-09-23T04:12:52.625Z,60.29
2016-09-23T04:13:52.603Z,60.38
2016-09-23T04:14:52.575Z,60.38
2016-09-23T04:15:52.548Z,60.29
2016-09-23T04:16:52.525Z,60.29
2016-09-23T04:17:52.505Z,60.48
2016-09-23T04:18:52.480Z,60.38
2016-09-23T04:19:52.456Z,60.38
2016-09-23T04:20:52.434Z,60.67
2016-09-23T04:21:52.408Z,60.38
2016-09-23T04:22:52.384Z,60.38
2016-09-23T04:23:52.359Z,60.58
2016-09-23T04:24:52.338Z,60.19
2016-09-23T04:25:52.315Z,60.19
2016-09-23T04:26:52.292Z,60.58
2016-09-23T04:27:52.269Z,60.19
2016-09-23T04:28:52.242Z,60.58
2016-09-23T04:29:52.221Z,60.58
2016-09-23T04:30:52.194Z,60.29
2016-09-23T04:31:52.174Z,60.38
2016-09-23T04:32:52.151Z,60.77
2016-09-23T04:33:52.125Z,60.77
2016-09-23T04:34:52.104Z,60.58
2016-09-23T04:35:52.079Z,60.58
2016-09-23T04:36:52.056Z,60.58
2016-09-23T04:37:52.031Z,60.38
2016-09-23T04:38:52.006Z,60.38
2016-09-23T04:39:52.001Z,60.38
2016-09-23T04:40:51.959Z,60.48
2016-09-23T04:41:51.938Z,60.48
2016-09-23T04:42:51.910Z,60.67
2016-09-23T04:43:51.887Z,60.67
2016-09-23T04:44:51.865Z,60.38
2016-09-23T04:45:51.840Z,60.38
2016-09-23T04:46:51.821Z,60.96
2016-09-23T04:47:51.792Z,60.96
2016-09-23T04:48:51.770Z,60.55
2016-09-23T04:49:51.748Z,60.77
2016-09-23T04:50:51.721Z,60.77
2016-09-23T04:51:51.708Z,61.05
2016-09-23T04:52:51.675Z,61.12
2016-09-23T04:53:51.654Z,60.93
2016-09-23T04:54:51.627Z,60.83
2016-09-23T04:55:51.608Z,61.51
2016-09-23T04:56:51.581Z,61.22
2016-09-23T04:57:51.558Z,61.69
2016-09-23T04:58:51.533Z,61.79
2016-09-23T04:59:51.511Z,61.6
2016-09-23T05:00:51.486Z,61.69
2016-09-23T05:01:51.485Z,61.41
2016-09-23T05:02:51.440Z,61.51
2016-09-23T05:03:51.415Z,61.51
2016-09-23T05:04:51.389Z,61.69
2016-09-23T05:05:51.367Z,61.98
2016-09-23T05:06:51.348Z,61.69
2016-09-23T05:07:51.321Z,62.37
2016-09-23T05:08:51.295Z,62.27
2016-09-23T05:09:51.283Z,62.46
2016-09-23T05:10:51.247Z,62.17
2016-09-23T05:11:51.225Z,62.08
2016-09-23T05:12:51.201Z,62.27
2016-09-23T05:13:51.177Z,62.46
2016-09-23T05:14:51.151Z,62.17
2016-09-23T05:15:51.129Z,62.27
2016-09-23T05:16:51.104Z,62.17
2016-09-23T05:17:51.081Z,62.55
2016-09-23T05:18:51.058Z,62.65
2016-09-23T05:19:51.045Z,62.37
2016-09-23T05:20:51.009Z,62.46
2016-09-23T05:21:50.990Z,63.23
2016-09-23T05:22:50.961Z,62.74
2016-09-23T05:23:50.939Z,62.84
2016-09-23T05:24:50.913Z,63.03
2016-09-23T05:25:50.902Z,62.94
2016-09-23T05:26:50.863Z,63.42
2016-09-23T05:27:50.843Z,63.23
2016-09-23T05:28:50.816Z,63.42
2016-09-23T05:29:50.793Z,63.42
2016-09-23T05:30:50.770Z,62.94
2016-09-23T05:31:50.748Z,63.42
2016-09-23T05:32:50.723Z,63.51
2016-09-23T05:33:50.697Z,63.51
2016-09-23T05:34:50.673Z,63.32
2016-09-23T05:35:50.651Z,63.32
2016-09-23T05:36:50.631Z,63.89
2016-09-23T05:37:50.616Z,63.51
2016-09-23T05:38:50.577Z,63.89
2016-09-23T05:39:50.554Z,63.7
2016-09-23T05:40:50.532Z,63.8
2016-09-23T05:41:50.505Z,63.32
2016-09-23T05:42:50.484Z,63.99
2016-09-23T05:43:50.458Z,63.6
2016-09-23T05:44:50.450Z,64.09
2016-09-23T05:45:50.414Z,63.6
2016-09-23T05:46:50.387Z,63.7
2016-09-23T05:47:50.364Z,63.6
2016-09-23T05:48:50.339Z,63.8
2016-09-23T05:49:50.324Z,63.42
2016-09-23T05:50:50.293Z,63.42
2016-09-23T05:51:50.271Z,63.6
2016-09-23T05:52:50.245Z,63.45
2016-09-23T05:53:50.220Z,63.73
2016-09-23T05:54:50.197Z,63.73
2016-09-23T05:55:50.175Z,63.45
2016-09-23T05:56:50.150Z,63.83
2016-09-23T05:57:50.127Z,63.35
2016-09-23T05:58:50.101Z,63.54
2016-09-23T05:59:50.081Z,63.54
2016-09-23T06:00:50.056Z,63.35
2016-09-23T06:01:50.034Z,63.54
2016-09-23T06:02:50.016Z,62.97
2016-09-23T06:03:49.986Z,63.73
2016-09-23T06:04:49.963Z,63.73
2016-09-23T06:05:50.274Z,63.73
2016-09-23T06:06:49.916Z,63.93
2016-09-23T06:07:49.892Z,63.54
2016-09-23T06:08:49.884Z,63.73
2016-09-23T06:09:49.852Z,63.73
2016-09-23T06:10:49.838Z,63.83
2016-09-23T06:11:49.796Z,63.64
2016-09-23T06:12:49.775Z,63.1
2016-09-23T06:13:49.754Z,63.54
2016-09-23T06:14:49.738Z,63.54
2016-09-23T06:15:49.705Z,63.67
2016-09-23T06:16:49.683Z,63.19
2016-09-23T06:17:49.665Z,64.05
2016-09-23T06:18:49.637Z,63.48
2016-09-23T06:19:49.613Z,63.39
2016-09-23T06:20:49.592Z,63.48
2016-09-23T06:21:49.568Z,63.48
2016-09-23T06:22:49.547Z,63.67
2016-09-23T06:23:49.521Z,63.57
2016-09-23T06:24:49.497Z,63.76
2016-09-23T06:25:49.477Z,63.67
2016-09-23T06:26:49.453Z,63.39
2016-09-23T06:27:49.431Z,63
2016-09-23T06:28:49.408Z,63.32
2016-09-23T06:29:49.386Z,63.51
2016-09-23T06:30:49.363Z,63.32
2016-09-23T06:31:49.339Z,63.51
2016-09-23T06:32:49.322Z,63.42
2016-09-23T06:33:49.301Z,63.03
2016-09-23T06:34:49.275Z,62.93
2016-09-23T06:35:49.253Z,63.03
2016-09-23T06:36:49.231Z,63.03
2016-09-23T06:37:49.208Z,63.22
2016-09-23T06:38:49.190Z,63.22
2016-09-23T06:39:49.163Z,62.84
2016-09-23T06:40:49.142Z,62.55
2016-09-23T06:41:49.122Z,62.46
2016-09-23T06:42:49.098Z,62.46
2016-09-23T06:43:49.080Z,62.46
2016-09-23T06:44:49.052Z,62.3
2016-09-23T06:45:49.030Z,62.39
2016-09-23T06:46:49.010Z,62.68
2016-09-23T06:47:49.332Z,62.39
2016-09-23T06:48:48.965Z,62.49
2016-09-23T06:49:49.252Z,62.3
2016-09-23T06:50:48.925Z,61.91
2016-09-23T06:51:48.898Z,61.53
2016-09-23T06:52:48.878Z,61.24
2016-09-23T06:53:48.859Z,61.18
2016-09-23T06:54:48.844Z,61.08
2016-09-23T06:55:48.813Z,61.08
2016-09-23T06:56:48.793Z,60.79
2016-09-23T06:57:48.780Z,60.79
2016-09-23T06:58:48.754Z,60.31
2016-09-23T06:59:48.732Z,60.6
2016-09-23T07:00:48.710Z,60.79
2016-09-23T07:01:48.693Z,60.44
2016-09-23T07:02:48.667Z,60.44
2016-09-23T07:03:48.648Z,60.15
2016-09-23T07:04:48.627Z,60.44
2016-09-23T07:05:48.606Z,60.05
2016-09-23T07:06:48.588Z,60.15
2016-09-23T07:07:48.572Z,60.35
2016-09-23T07:08:48.543Z,60.35
2016-09-23T07:09:48.526Z,60.53
2016-09-23T07:10:48.505Z,59.86
2016-09-23T07:11:48.481Z,59.77
2016-09-23T07:12:48.464Z,59.38
2016-09-23T07:13:48.441Z,59.67
2016-09-23T07:14:48.423Z,59.48
2016-09-23T07:15:48.398Z,59.67
2016-09-23T07:16:48.381Z,59.77
2016-09-23T07:17:48.358Z,59.96
2016-09-23T07:18:48.336Z,59.77
2016-09-23T07:19:48.322Z,59.77
2016-09-23T07:20:48.385Z,59.77
2016-09-23T07:21:48.881Z,59.67
2016-09-23T07:22:48.273Z,59.77
2016-09-23T07:23:48.584Z,59.67
2016-09-23T07:24:48.231Z,59.77
2016-09-23T07:25:48.194Z,59.48
2016-09-23T07:26:48.172Z,59.58
2016-09-23T07:27:48.149Z,59.67
2016-09-23T07:28:48.180Z,59.67
2016-09-23T07:29:48.163Z,59.77
2016-09-23T07:30:48.089Z,59.8
2016-09-23T07:31:48.116Z,59.58
2016-09-23T07:32:48.050Z,59.61
2016-09-23T07:33:48.333Z,59.51
2016-09-23T07:34:48.074Z,59.89
2016-09-23T07:35:48.088Z,59.32
2016-09-23T07:36:47.996Z,59.12
2016-09-23T07:37:47.945Z,59.12
2016-09-23T07:38:48.232Z,59.32
2016-09-23T07:39:47.950Z,59.32
2016-09-23T07:40:47.885Z,58.84
2016-09-23T07:41:47.917Z,58.74
2016-09-23T07:42:47.843Z,58.84
2016-09-23T07:43:47.827Z,59.03
2016-09-23T07:44:47.803Z,58.87
2016-09-23T07:45:47.836Z,58.1
2016-09-23T07:46:47.764Z,58.39
2016-09-23T07:47:47.745Z,58.1
2016-09-23T07:48:47.761Z,58.58
2016-09-23T07:49:47.703Z,58
2016-09-23T07:50:47.689Z,58.1
2016-09-23T07:51:47.664Z,58.03
2016-09-23T07:52:47.665Z,57.52
2016-09-23T07:53:47.687Z,57.65
2016-09-23T07:54:47.603Z,57.55
2016-09-23T07:55:47.589Z,57.65
2016-09-23T07:56:47.568Z,57.75
2016-09-23T07:57:47.571Z,57.75
2016-09-23T07:58:47.527Z,57.45
2016-09-23T07:59:47.522Z,57.36
2016-09-23T08:00:47.493Z,57.55
2016-09-23T08:01:47.482Z,57.55
2016-09-23T08:02:47.484Z,57.55
2016-09-23T08:03:47.449Z,56.98
2016-09-23T08:04:47.444Z,56.78
2016-09-23T08:05:47.395Z,56.71
2016-09-23T08:06:47.380Z,57
2016-09-23T08:07:47.413Z,57
2016-09-23T08:08:47.339Z,56.71
2016-09-23T08:09:47.321Z,56.62
2016-09-23T08:10:47.299Z,56.62
2016-09-23T08:11:47.282Z,56.43
2016-09-23T08:12:47.263Z,56.23
2016-09-23T08:13:47.244Z,56.04
2016-09-23T08:14:47.225Z,56.52
2016-09-23T08:15:47.508Z,55.66
2016-09-23T08:16:47.645Z,55.56
2016-09-23T08:17:47.168Z,55.88
2016-09-23T08:18:47.152Z,55.46
2016-09-23T08:19:47.132Z,55.98
2016-09-23T08:20:47.474Z,55.4
2016-09-23T08:21:47.095Z,55.01
2016-09-23T08:22:47.104Z,55.2
2016-09-23T08:23:47.061Z,54.91
2016-09-23T08:24:47.042Z,54.82
2016-09-23T08:25:47.026Z,54.72
2016-09-23T08:26:47.007Z,55.11
2016-09-23T08:27:46.992Z,53.98
2016-09-23T08:28:46.973Z,54.27
2016-09-23T08:29:46.954Z,54.08
2016-09-23T08:30:46.936Z,54.17
2016-09-23T08:31:46.919Z,53.98
2016-09-23T08:32:46.903Z,53.69
2016-09-23T08:33:46.885Z,53.21
2016-09-23T08:34:46.870Z,53.02
2016-09-23T08:35:46.856Z,53.14
2016-09-23T08:36:46.835Z,53.33
2016-09-23T08:37:46.815Z,52.66
2016-09-23T08:38:46.800Z,52.66
2016-09-23T08:39:46.782Z,52.37
2016-09-23T08:40:46.765Z,52.18
2016-09-23T08:41:46.750Z,51.92
2016-09-23T08:42:46.733Z,52.01
2016-09-23T08:43:46.718Z,51.62
2016-09-23T08:44:46.699Z,51.62
2016-09-23T08:45:46.684Z,51.72
2016-09-23T08:46:46.669Z,52.01
2016-09-23T08:47:46.651Z,51.43
2016-09-23T08:48:46.633Z,51.43
2016-09-23T08:49:46.615Z,51.34
2016-09-23T08:50:46.600Z,51.43
2016-09-23T08:51:46.585Z,51.34
2016-09-23T08:52:46.566Z,51.24
2016-09-23T08:53:46.549Z,51.53
2016-09-23T08:54:46.539Z,51.34
2016-09-23T08:55:46.674Z,51.24
2016-09-23T08:56:46.503Z,51.34
2016-09-23T08:57:46.483Z,51.43
2016-09-23T08:58:46.468Z,51.53
2016-09-23T08:59:46.447Z,51.92
2016-09-23T09:00:46.431Z,52.01
2016-09-23T09:01:46.417Z,51.92
2016-09-23T09:02:46.400Z,51.34
2016-09-23T09:03:46.386Z,51.53
2016-09-23T09:04:46.365Z,51.46
2016-09-23T09:05:46.347Z,51.36
2016-09-23T09:06:46.332Z,51.17
2016-09-23T09:07:46.315Z,50.98
2016-09-23T09:08:46.295Z,51.07
2016-09-23T09:09:46.280Z,51.07
2016-09-23T09:10:47.313Z,50.78
2016-09-23T09:11:46.249Z,50.88
2016-09-23T09:12:46.235Z,50.98
2016-09-23T09:13:46.213Z,51.07
2016-09-23T09:14:46.196Z,51.26
2016-09-23T09:15:46.176Z,51.07
2016-09-23T09:16:46.161Z,50.98
2016-09-23T09:17:46.145Z,51.07
2016-09-23T09:18:46.126Z,50.98
2016-09-23T09:19:46.411Z,50.88
2016-09-23T09:20:46.093Z,50.98
2016-09-23T09:21:46.083Z,50.59
2016-09-23T09:22:46.057Z,50.3
2016-09-23T09:23:46.042Z,50.11
2016-09-23T09:24:46.025Z,50.59
2016-09-23T09:25:46.008Z,50.4
2016-09-23T09:26:45.992Z,50.4
2016-09-23T09:27:45.975Z,50.3
2016-09-23T09:28:45.961Z,50.21
2016-09-23T09:29:45.944Z,50.3
2016-09-23T09:30:45.927Z,50.49
2016-09-23T09:31:45.909Z,50.4
2016-09-23T09:32:45.894Z,49.27
2016-09-23T09:33:45.876Z,49.55
2016-09-23T09:34:45.870Z,49.17
2016-09-23T09:35:45.858Z,48.79
2016-09-23T09:36:45.827Z,49.27
2016-09-23T09:37:45.886Z,49.17
2016-09-23T09:38:45.797Z,49
2016-09-23T09:39:45.895Z,48.88
2016-09-23T09:40:45.767Z,48.71
2016-09-23T09:41:45.753Z,48.9
2016-09-23T09:42:45.735Z,48.81
2016-09-23T09:43:45.771Z,48.79
2016-09-23T09:44:45.758Z,48.71
2016-09-23T09:45:45.750Z,48.81
2016-09-23T09:46:45.674Z,48.79
2016-09-23T09:47:45.714Z,48.33
2016-09-23T09:48:45.651Z,48.42
2016-09-23T09:49:45.626Z,48.33
2016-09-23T09:50:45.610Z,48.23
2016-09-23T09:52:45.581Z,48.23
2016-09-23T09:53:45.566Z,48.33
2016-09-23T09:54:45.548Z,48.23
2016-09-23T09:55:45.533Z,48.33
2016-09-23T09:56:45.526Z,48.23
2016-09-23T09:57:45.509Z,49
2016-09-23T09:58:45.586Z,49.19
2016-09-23T09:59:46.020Z,49
2016-09-23T10:00:45.475Z,49
2016-09-23T10:01:45.488Z,49.1
2016-09-23T10:02:45.439Z,49.55
2016-09-23T10:03:45.445Z,49.37
2016-09-23T10:04:45.411Z,49.29
2016-09-23T10:05:45.377Z,49.37
2016-09-23T10:06:45.361Z,49.37
2016-09-23T10:07:45.346Z,49.77
2016-09-23T10:08:45.348Z,49.75
2016-09-23T10:09:45.309Z,50.13
2016-09-23T10:10:45.293Z,50.32
2016-09-23T10:11:45.279Z,50.23
2016-09-23T10:12:45.364Z,50.71
2016-09-23T10:13:45.245Z,50.52
2016-09-23T10:14:45.229Z,50.62
2016-09-23T10:15:45.318Z,50.32
2016-09-23T10:16:45.207Z,50.71
2016-09-23T10:17:45.205Z,50.81
2016-09-23T10:18:45.203Z,50.81
2016-09-23T10:19:45.162Z,50.9
2016-09-23T10:20:45.186Z,51.1
2016-09-23T10:21:45.173Z,50.9
2016-09-23T10:22:45.105Z,50.9
2016-09-23T10:23:45.129Z,51.2
2016-09-23T10:24:45.087Z,51.1
2016-09-23T10:25:45.049Z,51.1
2016-09-23T10:26:45.034Z,51.2
2016-09-23T10:27:45.014Z,51.48
2016-09-23T10:28:44.998Z,51.39
2016-09-23T10:29:44.984Z,51.39
2016-09-23T10:30:44.966Z,51.39
2016-09-23T10:31:44.948Z,51.29
2016-09-23T10:32:44.932Z,51.97
2016-09-23T10:33:44.914Z,51.58
2016-09-23T10:34:44.897Z,51.58
2016-09-23T10:35:44.882Z,51.77
2016-09-23T10:36:44.867Z,52.16
2016-09-23T10:37:44.851Z,51.39
2016-09-23T10:38:44.832Z,51.29
2016-09-23T10:39:44.817Z,51.2
2016-09-23T10:40:44.801Z,51
2016-09-23T10:41:44.787Z,50.93
2016-09-23T10:42:44.765Z,50.54
2016-09-23T10:43:44.749Z,50.45
2016-09-23T10:44:44.736Z,50.45
2016-09-23T10:45:44.717Z,50.57
2016-09-23T10:46:44.703Z,50.38
2016-09-23T10:47:44.685Z,50.38
2016-09-23T10:48:44.668Z,50.47
2016-09-23T10:49:44.655Z,50.96
2016-09-23T10:50:44.639Z,50.57
2016-09-23T10:51:44.626Z,51.34
2016-09-23T10:52:44.610Z,50.86
2016-09-23T10:53:44.665Z,50.96
2016-09-23T10:54:44.752Z,50.76
2016-09-23T10:55:45.219Z,50.5
2016-09-23T10:56:44.812Z,50.59
2016-09-23T10:57:45.044Z,50.31
2016-09-23T10:58:45.069Z,50.59
2016-09-23T10:59:44.695Z,50.57
2016-09-23T11:00:44.679Z,50.4
2016-09-23T11:01:44.653Z,50.57
2016-09-23T11:02:44.680Z,50.67
2016-09-23T11:03:44.556Z,51.05
2016-09-23T11:04:44.447Z,51.22
2016-09-23T11:05:44.743Z,52.19
2016-09-23T11:06:44.421Z,51.7
2016-09-23T11:07:44.592Z,51.7
2016-09-23T11:08:44.798Z,51.99
2016-09-23T11:09:44.918Z,51.99
2016-09-23T11:10:44.448Z,51.99
2016-09-23T11:11:44.542Z,51.8
2016-09-23T11:12:44.557Z,51.89
2016-09-23T11:13:44.522Z,52.09
2016-09-23T11:14:44.476Z,52.37
2016-09-23T11:15:44.545Z,52.76
2016-09-23T11:16:44.305Z,52.67
2016-09-23T11:17:44.265Z,53.53
2016-09-23T11:18:44.660Z,52.83
2016-09-23T11:19:44.595Z,53.05
2016-09-23T11:20:44.568Z,53.51
2016-09-23T11:21:44.805Z,53.99
2016-09-23T11:22:44.561Z,54.47
2016-09-23T11:23:44.488Z,54.47
2016-09-23T11:24:45.002Z,54.57
2016-09-23T11:25:44.477Z,54.38
2016-09-23T11:26:44.747Z,55.24
2016-09-23T11:27:44.312Z,55.05
2016-09-23T11:28:44.619Z,55.31
2016-09-23T11:29:44.362Z,55.51
2016-09-23T11:30:44.655Z,55.79
2016-09-23T11:31:44.616Z,55.51
2016-09-23T11:32:44.554Z,55.89
2016-09-23T11:33:44.521Z,56.47
2016-09-23T11:34:44.189Z,56.27
2016-09-23T11:35:44.508Z,56.37
2016-09-23T11:36:43.987Z,56.18
2016-09-23T11:37:44.611Z,56.27
2016-09-23T11:38:44.258Z,56.37
2016-09-23T11:39:44.134Z,56.47
2016-09-23T11:40:44.090Z,56.47
2016-09-23T11:41:44.182Z,56.47
2016-09-23T11:42:44.106Z,56.09
2016-09-23T11:43:44.414Z,55.79
2016-09-23T11:44:44.461Z,56.09
2016-09-23T11:45:44.405Z,56.09
2016-09-23T11:46:44.054Z,55.89
2016-09-23T11:47:43.973Z,55.02
2016-09-23T11:48:44.223Z,55.44
2016-09-23T11:49:44.352Z,55.05
2016-09-23T11:50:44.046Z,54.96
2016-09-23T11:51:44.081Z,54.28
2016-09-23T11:52:44.311Z,54.76
2016-09-23T11:53:43.893Z,54.18
2016-09-23T11:54:44.302Z,53.83
2016-09-23T11:55:44.320Z,53.63
2016-09-23T11:56:44.248Z,53.15
2016-09-23T11:57:43.774Z,52.95
2016-09-23T11:58:43.797Z,52.57
2016-09-23T11:59:43.821Z,52.67
2016-09-23T12:00:43.768Z,52.4
2016-09-23T12:01:44.200Z,52.09
2016-09-23T12:02:44.202Z,52.09
2016-09-23T12:03:43.802Z,51.8
2016-09-23T12:04:44.108Z,51.89
2016-09-23T12:05:44.159Z,51.82
2016-09-23T12:06:44.264Z,51.22
2016-09-23T12:07:43.701Z,51.15
2016-09-23T12:08:43.764Z,51.44
2016-09-23T12:09:43.676Z,50.86
2016-09-23T12:10:43.595Z,50.96
2016-09-23T12:11:43.692Z,50.76
2016-09-23T12:12:43.980Z,50.96
2016-09-23T12:13:43.829Z,50.38
2016-09-23T12:14:43.641Z,50.57
2016-09-23T12:15:43.992Z,50.38
2016-09-23T12:16:43.504Z,50.31
2016-09-23T12:17:43.888Z,50.31
2016-09-23T12:18:43.618Z,50.21
2016-09-23T12:19:43.524Z,50.11
2016-09-23T12:20:43.506Z,50.09
2016-09-23T12:21:44.001Z,50.18
2016-09-23T12:22:44.623Z,50.31
2016-09-23T12:23:44.767Z,50.38
2016-09-23T12:24:43.753Z,50.18
2016-09-23T12:25:43.368Z,50.18
2016-09-23T12:26:43.724Z,50.67
2016-09-23T12:27:43.406Z,50.57
2016-09-23T12:28:43.574Z,50.57
2016-09-23T12:29:43.838Z,50.09
2016-09-23T12:30:43.432Z,50.28
2016-09-23T12:31:43.355Z,50.09
2016-09-23T12:32:43.597Z,49.9
2016-09-23T12:33:43.716Z,49.6
2016-09-23T12:34:43.298Z,49.24
2016-09-23T12:35:43.596Z,48.76
2016-09-23T12:36:43.207Z,49.24
2016-09-23T12:37:43.598Z,49.24
2016-09-23T12:38:43.072Z,48.86
2016-09-23T12:39:43.515Z,49.44
2016-09-23T12:40:43.129Z,49.15
2016-09-23T12:41:43.474Z,48.95
2016-09-23T12:42:43.477Z,49.44
2016-09-23T12:43:43.137Z,49.34
2016-09-23T12:44:43.088Z,50.4
2016-09-23T12:45:43.402Z,50.4
2016-09-23T12:46:43.068Z,50.31
2016-09-23T12:47:43.033Z,50.5
2016-09-23T12:48:43.429Z,50.5
2016-09-23T12:49:43.015Z,50.5
2016-09-23T12:50:43.310Z,50.4
2016-09-23T12:51:43.303Z,50.5
2016-09-23T12:52:42.932Z,50.89
2016-09-23T12:53:43.189Z,50.57
2016-09-23T12:54:43.288Z,50.57
2016-09-23T12:55:42.914Z,50.57
2016-09-23T12:56:43.247Z,50.38